DW1597 Weather Reports


time (UTC)temp
F
wind
direction
speed
knots
gust
knots
rain 1hr
in
rain 24hr
in
rain mn
in
humidity
%
barometer
mb
20211017150129 36 286 0.0 0.0 0.00 0.00 0.00 83 1004.2
20211017144647 36 286 0.0 0.0 0.00 0.00 0.00 81 1004.2
20211017143134 36 286 0.9 2.6 0.00 0.00 0.00 80 1004.1
20211017141622 36 286 0.0 0.0 0.00 0.00 0.00 80 1004.1
20211017140059 37 286 0.0 2.6 0.00 0.00 0.00 79 1004.2
20211017134604 37 283 4.3 7.8 0.00 0.00 0.00 80 1004.0
20211017133114 36 240 0.0 2.6 0.00 0.00 0.00 80 1004.1
20211017131640 36 240 0.0 1.7 0.00 0.00 0.00 82 1004.2
20211017130115 36 240 0.0 2.6 0.00 0.00 0.00 82 1004.3
20211017124548 36 240 0.0 1.7 0.00 0.00 0.00 81 1004.5
20211017123118 36 240 0.0 0.9 0.00 0.00 0.00 80 1004.8
20211017121551 36 240 0.0 0.9 0.00 0.00 0.00 81 1004.9
20211017120036 36 240 0.0 0.0 0.00 0.00 0.00 80 1005.2
20211017113111 36 240 0.0 0.9 0.00 0.00 0.00 82 1005.4
20211017111526 37 240 0.0 0.0 0.00 0.00 0.00 81 1005.5
20211017110035 37 240 0.0 0.9 0.00 0.00 0.00 82 1005.9
20211017104523 37 240 0.0 0.9 0.00 0.00 0.00 81 1006.1
20211017103028 37 240 0.0 0.0 0.00 0.00 0.00 80 1006.5
20211017101525 37 240 0.0 0.0 0.00 0.00 0.00 83 1006.6
20211017100011 37 240 0.0 0.0 0.00 0.00 0.00 83 1006.8
20211017094522 37 240 0.0 0.0 0.00 0.00 0.00 82 1007.0
20211017093006 37 240 0.0 0.0 0.00 0.00 0.00 83 1007.0
20211017091518 38 240 0.0 0.0 0.00 0.00 0.00 84 1007.2
20211017090003 38 240 0.0 0.0 0.00 0.00 0.00 83 1007.3
20211017084739 38 240 0.0 0.0 0.00 0.00 0.00 81 1007.6
20211017083325 38 240 0.0 1.7 0.00 0.00 0.00 81 1007.7
20211017081619 39 240 0.0 1.7 0.00 0.00 0.00 81 1007.8
20211017080143 39 240 0.0 2.6 0.00 0.00 0.00 81 1007.9
20211017074628 39 240 0.0 0.0 0.00 0.00 0.00 81 1008.0
20211017073110 39 240 0.0 0.0 0.00 0.00 0.00 82 1008.2
20211017071557 40 240 0.0 0.0 0.00 0.00 0.00 79 1008.4
20211017070119 40 240 0.0 0.0 0.00 0.00 0.00 79 1008.6
20211017064628 41 240 0.0 0.0 0.00 0.00 0.00 79 1008.6
20211017063056 41 240 0.0 0.0 0.00 0.00 0.00 79 1008.8
20211017061601 41 240 0.0 0.0 0.00 0.00 0.00 77 1008.7
20211017060047 42 240 0.0 0.0 0.00 0.00 0.00 76 1008.8
20211017054550 42 240 0.0 0.0 0.00 0.00 0.00 76 1008.9
20211017051610 43 240 0.0 0.0 0.00 0.00 0.00 73 1009.0
20211017050032 44 240 0.0 0.0 0.00 0.00 0.00 73 1008.9
20211017044623 44 240 0.0 0.0 0.00 0.00 0.00 73 1009.0
20211017043029 45 240 0.0 0.0 0.00 0.00 0.00 70 1009.0
20211017041528 46 240 0.0 0.9 0.00 0.00 0.00 70 1009.0
20211017040021 46 240 0.0 0.0 0.00 0.00 0.00 68 1009.1
20211017034512 47 240 0.0 0.0 0.00 0.00 0.00 67 1009.0
20211017033016 48 240 0.0 0.0 0.00 0.00 0.00 65 1009.0
20211017031508 49 240 0.0 0.0 0.00 0.00 0.00 64 1008.9
20211017030146 51 240 0.0 0.9 0.00 0.00 0.00 59 1008.9
20211017024700 52 240 0.0 1.7 0.00 0.00 0.00 57 1008.9
20211017023215 52 238 0.9 2.6 0.00 0.00 0.00 54 1008.7
20211017021640 52 238 0.0 1.7 0.00 0.00 0.00 57 1008.9
20211017020104 53 238 0.0 2.6 0.00 0.00 0.00 56 1008.8
20211017014723 55 238 0.0 0.9 0.00 0.00 0.00 52 1008.7
20211017013051 57 238 0.0 0.0 0.00 0.00 0.00 50 1008.5
20211017011518 59 238 0.0 0.0 0.00 0.00 0.00 46 1008.4
20211017010058 61 238 0.0 4.3 0.00 0.00 0.00 44 1008.4
20211017004637 62 222 0.0 0.9 0.00 0.00 0.00 41 1008.3
20211017003123 65 222 0.0 0.0 0.00 0.00 0.00 39 1008.4
20211017001517 67 222 0.0 0.0 0.00 0.00 0.00 33 1008.4
20211017000021 69 222 0.0 0.9 0.00 0.00 0.00 30 1008.5
20211016234517 72 222 0.0 0.9 0.00 0.00 0.00 28 1008.6
20211016233007 73 223 0.0 0.9 0.00 0.00 0.00 26 1008.8
20211016231506 74 246 0.0 5.2 0.00 0.00 0.00 24 1009.0
20211016230007 77 241 0.0 1.7 0.00 0.00 0.00 24 1009.1
20211016224601 78 189 0.0 4.3 0.00 0.00 0.00 23 1009.1
20211016223052 78 175 0.0 3.5 0.00 0.00 0.00 25 1009.4
20211016220035 77 107 0.0 0.9 0.00 0.00 0.00 25 1009.8
20211016214606 76 105 0.0 0.9 0.00 0.00 0.00 25 1010.1
20211016213020 74 105 0.0 1.7 0.00 0.00 0.00 27 1010.4
20211016211609 73 69 0.0 0.9 0.00 0.00 0.00 28 1010.7
20211016210135 72 68 0.0 0.0 0.00 0.00 0.00 30 1011.2
20211016204615 71 67 0.0 0.0 0.00 0.00 0.00 32 1011.7
20211016203101 70 67 0.0 0.0 0.00 0.00 0.00 33 1012.1
20211016201539 68 290 0.0 3.5 0.00 0.00 0.00 35 1012.5
20211016200054 66 295 0.0 2.6 0.00 0.00 0.00 37 1012.9
20211016194517 64 295 0.0 0.9 0.00 0.00 0.00 41 1013.2
20211016193011 63 290 0.0 0.9 0.00 0.00 0.00 41 1013.8
20211016191512 61 290 0.0 0.9 0.00 0.00 0.00 44 1014.2
20211016190016 61 290 0.0 2.6 0.00 0.00 0.00 42 1014.7
20211016184822 59 290 0.0 2.6 0.00 0.00 0.00 47 1015.0
20211016183113 56 290 0.0 0.9 0.00 0.00 0.00 53 1015.3
20211016181629 53 290 0.0 0.0 0.00 0.00 0.00 54 1015.6
20211016180134 51 290 0.0 2.6 0.00 0.00 0.00 57 1016.1
20211016174639 50 290 0.0 0.9 0.00 0.00 0.00 58 1016.2
20211016173134 49 290 0.0 3.5 0.00 0.00 0.00 60 1016.5
20211016171602 47 290 0.0 1.7 0.00 0.00 0.00 64 1016.7
20211016170055 46 290 0.0 1.7 0.00 0.00 0.00 66 1016.9
20211016164624 45 290 0.9 4.3 0.00 0.00 0.00 67 1017.3
20211016163123 43 290 0.0 3.5 0.00 0.00 0.00 70 1017.6
20211016161611 42 288 0.9 4.3 0.00 0.00 0.00 73 1017.6
20211016154602 38 288 0.0 2.6 0.00 0.00 0.00 83 1018.0
20211016153009 35 288 0.0 2.6 0.00 0.00 0.00 86 1018.1
20211016151552 34 288 0.0 1.7 0.00 0.00 0.00 85 1018.2